createdAt,value
2022-08-30T00:02:05.870Z,99.90
2022-08-30T00:04:32.700Z,99.90
2022-08-30T00:06:59.929Z,99.90
2022-08-30T00:09:26.774Z,99.90
2022-08-30T00:11:53.624Z,99.90
2022-08-30T00:14:20.573Z,99.90
2022-08-30T00:16:47.593Z,99.90
2022-08-30T00:19:14.488Z,99.90
2022-08-30T00:21:41.539Z,99.90
2022-08-30T00:24:08.483Z,99.90
2022-08-30T00:26:35.718Z,99.90
2022-08-30T00:29:03.475Z,99.90
2022-08-30T00:31:30.452Z,99.90
2022-08-30T00:33:57.562Z,99.90
2022-08-30T00:36:24.558Z,99.90
2022-08-30T00:38:51.418Z,99.90
2022-08-30T00:41:18.448Z,99.90
2022-08-30T00:43:45.346Z,99.90
2022-08-30T00:46:12.433Z,99.90
2022-08-30T00:48:41.893Z,99.90
2022-08-30T00:51:10.599Z,99.90
2022-08-30T00:53:39.690Z,99.90
2022-08-30T00:56:06.633Z,99.90
2022-08-30T00:58:40.931Z,99.90
2022-08-30T01:01:08.105Z,99.90
2022-08-30T01:03:36.252Z,99.90
2022-08-30T01:06:04.530Z,99.90
2022-08-30T01:08:31.475Z,99.90
2022-08-30T01:10:58.813Z,99.90
2022-08-30T01:13:26.219Z,99.90
2022-08-30T01:15:53.274Z,99.90
2022-08-30T01:18:22.290Z,99.90
2022-08-30T01:21:07.110Z,99.90
2022-08-30T01:23:37.136Z,99.90
2022-08-30T01:26:06.141Z,99.90
2022-08-30T01:28:34.087Z,99.90
2022-08-30T01:31:01.812Z,99.90
2022-08-30T01:33:29.216Z,99.90
2022-08-30T01:35:57.449Z,99.90
2022-08-30T01:38:29.565Z,99.90
2022-08-30T01:41:01.450Z,99.90
2022-08-30T01:43:28.874Z,99.90
2022-08-30T01:45:56.178Z,99.90
2022-08-30T01:48:23.040Z,99.90
2022-08-30T01:50:58.515Z,99.90
2022-08-30T01:53:25.699Z,99.90
2022-08-30T01:55:52.581Z,99.90
2022-08-30T01:58:19.596Z,99.90
2022-08-30T02:00:46.572Z,99.90
2022-08-30T02:03:13.461Z,99.90
2022-08-30T02:05:40.385Z,99.90
2022-08-30T02:08:07.668Z,99.90
2022-08-30T02:10:34.599Z,99.90
2022-08-30T02:13:01.904Z,99.90
2022-08-30T02:15:28.847Z,99.90
2022-08-30T02:17:55.882Z,99.90
2022-08-30T02:20:23.091Z,99.90
2022-08-30T02:22:49.914Z,99.90
2022-08-30T02:25:21.132Z,99.90
2022-08-30T02:27:48.650Z,99.90
2022-08-30T02:30:15.576Z,99.90
2022-08-30T02:32:42.553Z,99.90
2022-08-30T02:35:09.646Z,99.90
2022-08-30T02:37:36.973Z,99.90
2022-08-30T02:40:04.788Z,99.90
2022-08-30T02:42:31.723Z,99.90
2022-08-30T02:44:58.552Z,99.90
2022-08-30T02:47:25.635Z,99.90
2022-08-30T02:49:52.508Z,99.90
2022-08-30T02:52:20.031Z,99.90
2022-08-30T02:54:55.313Z,99.90
2022-08-30T02:57:22.957Z,99.90
2022-08-30T02:59:50.015Z,99.90
2022-08-30T03:02:16.846Z,99.90
2022-08-30T03:04:45.034Z,99.90
2022-08-30T03:07:12.815Z,99.90
2022-08-30T03:09:39.736Z,99.90
2022-08-30T03:12:07.915Z,99.90
2022-08-30T03:14:39.357Z,99.90
2022-08-30T03:17:11.243Z,99.90
2022-08-30T03:19:43.155Z,99.90
2022-08-30T03:22:10.633Z,99.90
2022-08-30T03:24:37.795Z,99.90
2022-08-30T03:27:04.811Z,99.90
2022-08-30T03:29:31.673Z,99.90
2022-08-30T03:31:58.690Z,99.90
2022-08-30T03:34:26.391Z,99.90
2022-08-30T03:36:54.579Z,99.90
2022-08-30T03:39:22.448Z,99.90
2022-08-30T03:41:49.308Z,99.90
2022-08-30T03:44:16.217Z,99.90
2022-08-30T03:46:43.384Z,99.90
2022-08-30T03:49:10.162Z,99.90
2022-08-30T03:51:37.467Z,99.90
2022-08-30T03:54:04.603Z,99.90
2022-08-30T03:56:31.515Z,99.90
2022-08-30T03:58:58.678Z,99.90
2022-08-30T04:01:26.102Z,99.90
2022-08-30T04:03:53.347Z,99.90
2022-08-30T04:06:20.281Z,99.90
2022-08-30T04:08:47.311Z,99.90
2022-08-30T04:11:17.294Z,99.90
2022-08-30T04:13:44.620Z,99.90
2022-08-30T04:16:12.186Z,99.90
2022-08-30T04:18:39.252Z,99.90
2022-08-30T04:21:06.633Z,99.90
2022-08-30T04:23:34.097Z,99.90
2022-08-30T04:26:01.215Z,99.90
2022-08-30T04:28:28.592Z,99.90
2022-08-30T04:30:55.669Z,99.90
2022-08-30T04:33:22.593Z,99.90
2022-08-30T04:35:50.661Z,99.90
2022-08-30T04:38:18.757Z,99.90
2022-08-30T04:40:49.674Z,99.90
2022-08-30T04:43:17.000Z,99.90
2022-08-30T04:45:47.002Z,99.90
2022-08-30T04:48:14.442Z,99.90
2022-08-30T04:50:43.281Z,99.90
2022-08-30T04:53:10.457Z,99.90
2022-08-30T04:55:37.879Z,99.90
2022-08-30T04:58:06.002Z,99.90
2022-08-30T05:00:33.153Z,99.90
2022-08-30T05:03:01.002Z,99.90
2022-08-30T05:05:40.070Z,99.90
2022-08-30T05:08:15.154Z,99.90
2022-08-30T05:10:45.707Z,99.90
2022-08-30T05:13:13.908Z,99.90
2022-08-30T05:15:41.321Z,99.90
2022-08-30T05:18:13.323Z,99.90
2022-08-30T05:20:41.764Z,99.90
2022-08-30T05:23:08.871Z,99.90
2022-08-30T05:25:39.802Z,99.90
2022-08-30T05:28:07.368Z,99.90
2022-08-30T05:30:36.580Z,99.90
2022-08-30T05:33:03.637Z,99.90
2022-08-30T05:35:30.582Z,99.90
2022-08-30T05:37:57.858Z,99.90
2022-08-30T05:40:25.515Z,99.90
2022-08-30T05:42:56.147Z,99.90
2022-08-30T05:45:22.960Z,99.90
2022-08-30T05:47:49.991Z,99.90
2022-08-30T05:50:16.843Z,99.90
2022-08-30T05:52:45.198Z,99.90
2022-08-30T05:55:12.818Z,99.90
2022-08-30T05:57:41.157Z,99.90
2022-08-30T06:00:18.202Z,99.90
2022-08-30T06:02:45.335Z,99.90
2022-08-30T06:05:14.296Z,99.90
2022-08-30T06:07:42.607Z,99.90
2022-08-30T06:10:09.765Z,99.90
2022-08-30T06:12:36.601Z,99.90
2022-08-30T06:15:04.220Z,99.90
2022-08-30T06:17:34.069Z,99.90
2022-08-30T06:20:01.143Z,99.90
2022-08-30T06:22:28.058Z,99.90
2022-08-30T06:24:58.198Z,99.90
2022-08-30T06:27:25.314Z,99.90
2022-08-30T06:29:52.923Z,99.90
2022-08-30T06:32:19.803Z,99.90
2022-08-30T06:34:46.688Z,99.90
2022-08-30T06:37:29.141Z,99.90
2022-08-30T06:39:58.381Z,99.90
2022-08-30T06:42:31.935Z,99.90
2022-08-30T06:45:00.571Z,99.90
2022-08-30T06:47:28.747Z,99.90
2022-08-30T06:49:56.136Z,99.90
2022-08-30T06:52:23.014Z,99.90
2022-08-30T06:54:50.492Z,99.90
2022-08-30T06:57:18.045Z,99.90
2022-08-30T06:59:45.354Z,99.90
2022-08-30T07:02:12.417Z,99.90
2022-08-30T07:04:39.417Z,99.90
2022-08-30T07:07:06.460Z,99.90
2022-08-30T07:09:33.615Z,99.90
2022-08-30T07:12:04.083Z,99.90
2022-08-30T07:14:31.249Z,99.90
2022-08-30T07:16:58.154Z,99.90
2022-08-30T07:19:24.980Z,99.90
2022-08-30T07:21:51.991Z,99.90
2022-08-30T07:24:19.949Z,99.90
2022-08-30T07:26:49.961Z,99.90
2022-08-30T07:29:17.644Z,99.90
2022-08-30T07:31:44.903Z,99.90
2022-08-30T07:34:11.869Z,99.90
2022-08-30T07:36:40.182Z,99.90
2022-08-30T07:39:07.561Z,99.90
2022-08-30T07:41:37.157Z,99.90
2022-08-30T07:44:04.342Z,99.90
2022-08-30T07:46:31.363Z,99.90
2022-08-30T07:49:00.201Z,99.90
2022-08-30T07:51:28.936Z,99.90
2022-08-30T07:53:56.121Z,99.90
2022-08-30T07:56:23.715Z,99.90
2022-08-30T07:58:51.199Z,99.90
2022-08-30T08:01:18.807Z,99.90
2022-08-30T08:03:46.763Z,99.90
2022-08-30T08:06:15.807Z,99.90
2022-08-30T08:08:43.765Z,99.90
2022-08-30T08:11:22.386Z,99.90
2022-08-30T08:13:54.197Z,99.90
2022-08-30T08:16:23.897Z,99.90
2022-08-30T08:18:52.112Z,99.90
2022-08-30T08:21:19.261Z,99.90
2022-08-30T08:23:46.105Z,99.90
2022-08-30T08:26:13.100Z,99.90
2022-08-30T08:28:40.146Z,99.90
2022-08-30T08:31:21.888Z,99.90
2022-08-30T08:33:52.598Z,99.90
2022-08-30T08:36:19.714Z,99.90
2022-08-30T08:38:46.771Z,99.90
2022-08-30T08:41:22.901Z,99.90
2022-08-30T08:43:50.053Z,99.90
2022-08-30T08:46:33.139Z,99.90
2022-08-30T08:49:03.400Z,99.90
2022-08-30T08:51:54.815Z,99.90
2022-08-30T08:54:33.230Z,99.90
2022-08-30T08:57:00.830Z,99.90
2022-08-30T08:59:27.815Z,99.90
2022-08-30T09:01:59.161Z,99.90
2022-08-30T09:04:31.254Z,99.90
2022-08-30T09:06:59.472Z,99.90
2022-08-30T09:09:35.280Z,99.90
2022-08-30T09:12:03.093Z,99.90
2022-08-30T09:14:35.983Z,99.90
2022-08-30T09:17:04.629Z,99.90
2022-08-30T09:19:45.391Z,99.90
2022-08-30T09:22:46.548Z,99.90
2022-08-30T09:25:13.809Z,99.90
2022-08-30T09:27:43.302Z,99.90
2022-08-30T09:30:14.750Z,99.90
2022-08-30T09:33:03.153Z,99.90
2022-08-30T09:35:44.284Z,99.90
2022-08-30T09:38:21.151Z,99.90
2022-08-30T09:40:50.458Z,99.90
2022-08-30T09:43:17.846Z,99.90
2022-08-30T09:46:09.151Z,99.90
2022-08-30T09:48:44.366Z,99.90
2022-08-30T09:51:19.917Z,99.90
2022-08-30T09:54:18.309Z,99.90
2022-08-30T09:57:01.129Z,99.90
2022-08-30T09:59:43.266Z,99.90
2022-08-30T10:02:40.791Z,99.90
2022-08-30T10:05:43.498Z,99.90
2022-08-30T10:08:18.782Z,99.90
2022-08-30T10:10:57.698Z,99.90
2022-08-30T10:13:54.205Z,99.90
2022-08-30T10:16:41.866Z,99.90
2022-08-30T10:19:43.814Z,99.90
2022-08-30T10:22:15.470Z,99.90
2022-08-30T10:24:48.630Z,99.90
2022-08-30T10:27:22.123Z,99.90
2022-08-30T10:30:05.883Z,99.90
2022-08-30T10:32:51.850Z,99.90
2022-08-30T10:35:22.486Z,99.90
2022-08-30T10:38:03.053Z,99.90
2022-08-30T10:40:56.613Z,99.90
2022-08-30T10:43:39.095Z,99.90
2022-08-30T10:46:11.735Z,99.90
2022-08-30T10:48:44.377Z,99.90
2022-08-30T10:51:32.044Z,99.90
2022-08-30T10:54:10.577Z,99.90
2022-08-30T10:56:39.348Z,99.90
2022-08-30T10:59:06.400Z,99.90
2022-08-30T11:01:55.050Z,99.90
2022-08-30T11:04:50.976Z,99.90
2022-08-30T11:07:39.317Z,99.90
2022-08-30T11:10:14.976Z,99.90
2022-08-30T11:13:03.821Z,99.90
2022-08-30T11:15:34.978Z,99.90
2022-08-30T11:18:09.427Z,99.90
2022-08-30T11:20:49.080Z,99.90
2022-08-30T11:23:20.794Z,99.90
2022-08-30T11:26:08.947Z,99.90
2022-08-30T11:28:46.825Z,99.90
2022-08-30T11:31:23.522Z,99.90
2022-08-30T11:33:53.259Z,99.90
2022-08-30T11:36:37.601Z,99.90
2022-08-30T11:39:10.440Z,99.90
2022-08-30T11:41:48.222Z,99.90
2022-08-30T11:44:21.777Z,99.90
2022-08-30T11:46:50.302Z,99.90
2022-08-30T11:49:20.448Z,99.90
2022-08-30T11:55:11.354Z,99.90
2022-08-30T11:57:41.166Z,99.90
2022-08-30T12:00:31.332Z,99.90
2022-08-30T12:03:07.287Z,99.90
2022-08-30T12:05:41.018Z,99.90
2022-08-30T12:08:10.980Z,99.90
2022-08-30T12:10:56.332Z,99.90
2022-08-30T12:13:53.819Z,99.90
2022-08-30T12:16:22.761Z,99.90
2022-08-30T12:18:51.402Z,99.90
2022-08-30T12:21:21.377Z,99.90
2022-08-30T12:24:03.753Z,99.90
2022-08-30T12:26:36.531Z,99.90
2022-08-30T12:29:09.053Z,99.90
2022-08-30T12:31:42.783Z,99.90
2022-08-30T12:34:09.768Z,99.90
2022-08-30T12:36:48.935Z,99.90
2022-08-30T12:39:22.172Z,99.90
2022-08-30T12:41:49.312Z,99.90
2022-08-30T12:44:25.421Z,99.90
2022-08-30T12:47:01.786Z,99.90
2022-08-30T12:49:31.992Z,99.90
2022-08-30T12:52:34.248Z,99.90
2022-08-30T12:55:17.551Z,99.90
2022-08-30T12:58:10.354Z,99.50
2022-08-30T13:00:42.387Z,98.90
2022-08-30T13:03:30.034Z,98.10
2022-08-30T13:05:57.979Z,96.70
2022-08-30T13:08:53.503Z,95.60
2022-08-30T13:11:20.834Z,95.10
2022-08-30T13:13:52.366Z,94.10
2022-08-30T13:16:23.004Z,92.60
2022-08-30T13:18:55.755Z,92.00
2022-08-30T13:21:30.699Z,91.50
2022-08-30T13:24:03.312Z,91.20
2022-08-30T13:26:36.431Z,91.80
2022-08-30T13:29:10.290Z,91.60
2022-08-30T13:31:37.733Z,91.20
2022-08-30T13:34:05.153Z,90.50
2022-08-30T13:36:38.143Z,90.00
2022-08-30T13:39:05.748Z,90.00
2022-08-30T13:41:34.268Z,90.00
2022-08-30T13:44:20.266Z,90.20
2022-08-30T13:46:55.802Z,90.40
2022-08-30T13:49:45.085Z,90.50
2022-08-30T13:52:20.803Z,91.10
2022-08-30T13:54:52.790Z,91.40
2022-08-30T14:00:14.753Z,92.00
2022-08-30T14:02:46.367Z,92.00
2022-08-30T14:05:44.404Z,92.40
2022-08-30T14:08:02.960Z,92.50
2022-08-30T14:10:31.776Z,92.60
2022-08-30T14:13:07.836Z,92.70
2022-08-30T14:15:39.299Z,92.90
2022-08-30T14:18:07.459Z,93.00
2022-08-30T14:20:38.760Z,93.10
2022-08-30T14:23:07.667Z,93.30
2022-08-30T14:25:40.339Z,93.10
2022-08-30T14:28:09.554Z,93.00
2022-08-30T14:30:37.290Z,92.90
2022-08-30T14:33:04.965Z,92.90
2022-08-30T14:35:32.000Z,93.10
2022-08-30T14:37:58.996Z,93.10
2022-08-30T14:40:26.075Z,93.00
2022-08-30T14:42:54.150Z,93.10
2022-08-30T14:45:21.213Z,93.10
2022-08-30T14:47:50.930Z,92.80
2022-08-30T14:50:18.176Z,92.90
2022-08-30T14:52:45.523Z,93.00
2022-08-30T14:55:13.124Z,93.20
2022-08-30T14:57:40.544Z,93.40
2022-08-30T15:00:10.218Z,93.30
2022-08-30T15:02:37.580Z,93.30
2022-08-30T15:05:06.914Z,93.20
2022-08-30T15:07:35.710Z,93.20
2022-08-30T15:10:04.197Z,93.30
2022-08-30T15:12:31.114Z,93.50
2022-08-30T15:14:58.667Z,93.50
2022-08-30T15:17:25.996Z,93.50
2022-08-30T15:19:53.268Z,93.70
2022-08-30T15:22:20.300Z,93.80
2022-08-30T15:24:50.762Z,94.00
2022-08-30T15:27:17.986Z,94.10
2022-08-30T15:29:45.084Z,94.10
2022-08-30T15:32:12.262Z,94.00
2022-08-30T15:34:39.216Z,94.00
2022-08-30T15:37:07.669Z,94.00
2022-08-30T15:39:34.980Z,94.00
2022-08-30T15:42:02.122Z,93.90
2022-08-30T15:44:31.353Z,93.80
2022-08-30T15:46:58.520Z,93.90
2022-08-30T15:49:25.532Z,94.00
2022-08-30T15:51:54.349Z,94.20
2022-08-30T15:54:23.036Z,94.60
2022-08-30T15:56:50.157Z,94.90
2022-08-30T15:59:20.088Z,95.10
2022-08-30T16:01:47.593Z,95.20
2022-08-30T16:04:18.372Z,95.10
2022-08-30T16:06:46.948Z,95.10
2022-08-30T16:09:14.528Z,95.20
2022-08-30T16:11:42.069Z,95.30
2022-08-30T16:14:09.423Z,95.20
2022-08-30T16:16:39.898Z,95.30
2022-08-30T16:19:09.169Z,95.40
2022-08-30T16:21:39.999Z,94.90
2022-08-30T16:24:10.515Z,95.00
2022-08-30T16:26:41.908Z,94.30
2022-08-30T16:29:09.028Z,94.10
2022-08-30T16:31:36.767Z,94.00
2022-08-30T16:34:04.628Z,93.50
2022-08-30T16:36:32.945Z,93.40
2022-08-30T16:39:00.259Z,92.70
2022-08-30T16:41:28.071Z,91.90
2022-08-30T16:43:55.385Z,91.50
2022-08-30T16:46:27.302Z,91.20
2022-08-30T16:48:57.382Z,90.80
2022-08-30T16:51:30.191Z,90.60
2022-08-30T16:53:59.495Z,90.50
2022-08-30T16:56:27.720Z,90.30
2022-08-30T16:59:01.367Z,90.70
2022-08-30T17:01:34.743Z,90.20
2022-08-30T17:04:04.383Z,90.10
2022-08-30T17:06:32.471Z,89.80
2022-08-30T17:08:59.411Z,89.30
2022-08-30T17:11:26.923Z,88.90
2022-08-30T17:13:54.115Z,87.60
2022-08-30T17:16:27.248Z,87.40
2022-08-30T17:19:00.442Z,87.30
2022-08-30T17:21:31.171Z,86.70
2022-08-30T17:24:02.326Z,86.50
2022-08-30T17:26:34.737Z,86.00
2022-08-30T17:29:05.732Z,85.70
2022-08-30T17:31:35.215Z,85.80
2022-08-30T17:34:04.104Z,85.50
2022-08-30T17:36:32.845Z,85.90
2022-08-30T17:39:10.456Z,85.90
2022-08-30T17:41:45.477Z,86.10
2022-08-30T17:44:23.240Z,85.60
2022-08-30T17:46:53.704Z,86.30
2022-08-30T17:49:21.498Z,86.70
2022-08-30T17:51:56.089Z,86.70
2022-08-30T17:54:24.577Z,86.80
2022-08-30T17:56:53.440Z,86.70
2022-08-30T17:59:25.181Z,86.90
2022-08-30T18:01:53.303Z,87.20
2022-08-30T18:04:20.592Z,87.30
2022-08-30T18:06:47.772Z,87.40
2022-08-30T18:09:14.966Z,87.20
2022-08-30T18:11:42.208Z,87.50
2022-08-30T18:14:10.885Z,87.10
2022-08-30T18:16:42.782Z,87.30
2022-08-30T18:19:45.932Z,87.60
2022-08-30T18:22:15.116Z,87.70
2022-08-30T18:24:42.386Z,87.80
2022-08-30T18:27:09.588Z,87.90
2022-08-30T18:29:38.016Z,88.30
2022-08-30T18:32:05.836Z,88.50
2022-08-30T18:34:36.675Z,88.30
2022-08-30T18:37:03.694Z,88.70
2022-08-30T18:39:34.548Z,88.80
2022-08-30T18:42:03.385Z,89.00
2022-08-30T18:44:33.445Z,89.40
2022-08-30T18:47:03.618Z,89.50
2022-08-30T18:49:32.439Z,89.90
2022-08-30T18:52:00.869Z,90.20
2022-08-30T18:54:28.203Z,90.20
2022-08-30T18:56:55.120Z,90.40
2022-08-30T18:59:22.146Z,90.70
2022-08-30T19:01:49.699Z,90.80
2022-08-30T19:04:29.675Z,91.00
2022-08-30T19:06:57.449Z,91.10
2022-08-30T19:09:24.482Z,91.30
2022-08-30T19:11:54.059Z,91.50
2022-08-30T19:14:20.990Z,91.70
2022-08-30T19:16:48.476Z,91.90
2022-08-30T19:19:15.545Z,92.10
2022-08-30T19:21:42.723Z,92.30
2022-08-30T19:24:09.842Z,92.50
2022-08-30T19:26:38.327Z,92.70
2022-08-30T19:29:06.414Z,92.80
2022-08-30T19:31:33.737Z,93.00
2022-08-30T19:34:00.903Z,93.20
2022-08-30T19:36:28.985Z,93.30
2022-08-30T19:38:56.361Z,93.50
2022-08-30T19:41:23.599Z,93.60
2022-08-30T19:43:51.250Z,94.00
2022-08-30T19:46:18.529Z,93.90
2022-08-30T19:48:45.549Z,94.00
2022-08-30T19:51:14.437Z,94.20
2022-08-30T19:53:41.812Z,94.40
2022-08-30T19:56:08.719Z,94.60
2022-08-30T19:58:36.265Z,94.80
2022-08-30T20:01:11.622Z,95.00
2022-08-30T20:03:40.239Z,95.20
2022-08-30T20:06:08.856Z,95.40
2022-08-30T20:08:36.800Z,95.70
2022-08-30T20:11:04.509Z,96.10
2022-08-30T20:13:33.794Z,96.20
2022-08-30T20:16:01.716Z,96.50
2022-08-30T20:18:29.473Z,96.70
2022-08-30T20:20:57.126Z,96.90
2022-08-30T20:26:12.591Z,97.40
2022-08-30T20:28:40.012Z,97.70
2022-08-30T20:31:07.483Z,97.90
2022-08-30T20:33:37.540Z,98.10
2022-08-30T20:36:06.423Z,98.40
2022-08-30T20:38:33.565Z,98.60
2022-08-30T20:41:02.744Z,98.90
2022-08-30T20:43:32.641Z,99.10
2022-08-30T20:46:07.027Z,99.30
2022-08-30T20:48:33.980Z,99.90
2022-08-30T20:51:03.905Z,99.80
2022-08-30T20:53:30.974Z,99.90
2022-08-30T20:55:58.127Z,99.90
2022-08-30T20:58:25.164Z,99.90
2022-08-30T21:00:53.658Z,99.90
2022-08-30T21:03:26.147Z,99.90
2022-08-30T21:05:55.406Z,99.90
2022-08-30T21:08:22.357Z,99.90
2022-08-30T21:10:49.331Z,99.90
2022-08-30T21:13:16.456Z,99.90
2022-08-30T21:15:46.492Z,99.90
2022-08-30T21:18:14.552Z,99.90
2022-08-30T21:20:42.051Z,99.90
2022-08-30T21:23:09.570Z,99.90
2022-08-30T21:25:41.086Z,99.90
2022-08-30T21:28:08.770Z,99.90
2022-08-30T21:30:36.443Z,99.90
2022-08-30T21:33:04.733Z,99.90
2022-08-30T21:35:50.163Z,99.90
2022-08-30T21:38:17.606Z,99.90
2022-08-30T21:40:44.651Z,99.90
2022-08-30T21:43:12.135Z,99.90
2022-08-30T21:45:40.529Z,99.90
2022-08-30T21:48:07.734Z,99.90
2022-08-30T21:50:35.131Z,99.90
2022-08-30T21:53:02.039Z,99.90
2022-08-30T21:55:29.019Z,99.90
2022-08-30T21:57:56.078Z,99.90
2022-08-30T22:00:23.164Z,99.90
2022-08-30T22:02:53.253Z,99.90
2022-08-30T22:05:20.568Z,99.90
2022-08-30T22:07:47.787Z,99.90
2022-08-30T22:10:15.420Z,99.90
2022-08-30T22:12:42.460Z,99.90
2022-08-30T22:15:10.596Z,99.90
2022-08-30T22:17:37.501Z,99.90
2022-08-30T22:20:06.107Z,99.90
2022-08-30T22:22:33.318Z,99.90
2022-08-30T22:25:00.252Z,99.90
2022-08-30T22:27:27.275Z,99.90
2022-08-30T22:29:54.477Z,99.90
2022-08-30T22:32:21.529Z,99.90
2022-08-30T22:34:49.838Z,99.90
2022-08-30T22:37:16.755Z,99.90
2022-08-30T22:39:43.593Z,99.90
2022-08-30T22:42:10.585Z,99.90
2022-08-30T22:44:37.689Z,99.90
2022-08-30T22:47:04.870Z,99.90
2022-08-30T22:49:31.875Z,99.90
2022-08-30T22:51:58.975Z,99.90
2022-08-30T22:54:25.782Z,99.90
2022-08-30T22:56:52.577Z,99.90
2022-08-30T22:59:19.403Z,99.90
2022-08-30T23:01:47.270Z,99.90
2022-08-30T23:04:16.774Z,99.90
2022-08-30T23:06:49.919Z,99.90
2022-08-30T23:09:17.350Z,99.90
2022-08-30T23:11:44.505Z,99.90
2022-08-30T23:14:11.549Z,99.90
2022-08-30T23:16:38.472Z,99.90
2022-08-30T23:19:05.549Z,99.90
2022-08-30T23:21:32.742Z,99.90
2022-08-30T23:24:18.178Z,99.90
2022-08-30T23:27:05.824Z,99.90
2022-08-30T23:29:52.020Z,99.90
2022-08-30T23:32:38.021Z,99.90
2022-08-30T23:35:29.426Z,99.90
2022-08-30T23:38:19.387Z,99.90
2022-08-30T23:41:04.952Z,99.90
2022-08-30T23:43:50.510Z,99.90
2022-08-30T23:46:36.193Z,99.90
2022-08-30T23:49:21.628Z,99.90
2022-08-30T23:52:07.318Z,99.90
2022-08-30T23:54:57.224Z,99.90
2022-08-30T23:57:44.981Z,99.90
